QFA1998 YSCB-YBCG
Flight info
| Callsign | QFA1998 |
|---|---|
| Flight time | 1h 21m |
| Altitude | 34000 |
| Route | AVBEG W184 MUDGI/N0449F350 H66 URKER Y54 BERNI |
| Aircraft | A321/M-SDE3FGHIRWY/LB1 |
Departure
| Time | 2026-05-06 10:00 |
|---|---|
| Airport | Canberra Airport (YSCB) |
Arrival
| Time | 2026-05-06 11:21 |
|---|---|
| Airport | Gold Coast Airport (YBCG) |
| Time | Latitude | Longitude | Altitude | Speed | Heading |
|---|---|---|---|---|---|
| 2026-05-06 09:17 | -35.30922 | 149.19118 | 1880 ft | 0 kts | 270° |
| 2026-05-06 09:49 | -35.30922 | 149.19130 | 1879 ft | 4 kts | 268° |
| 2026-05-06 09:49 | -35.30921 | 149.19163 | 1879 ft | 4 kts | 266° |
| 2026-05-06 09:49 | -35.30921 | 149.19196 | 1879 ft | 4 kts | 281° |
| 2026-05-06 09:50 | -35.30926 | 149.19219 | 1879 ft | 4 kts | 269° |
| 2026-05-06 09:50 | -35.30920 | 149.19239 | 1879 ft | 3 kts | 230° |
| 2026-05-06 09:50 | -35.30917 | 149.19243 | 1875 ft | 0 kts | 230° |
| 2026-05-06 09:52 | -35.30918 | 149.19242 | 1878 ft | 1 kts | 220° |
| 2026-05-06 09:53 | -35.30940 | 149.19239 | 1877 ft | 6 kts | 185° |
| 2026-05-06 09:53 | -35.31008 | 149.19240 | 1879 ft | 13 kts | 180° |
| 2026-05-06 09:53 | -35.31119 | 149.19240 | 1879 ft | 19 kts | 180° |
| 2026-05-06 09:53 | -35.31276 | 149.19240 | 1878 ft | 25 kts | 179° |
| 2026-05-06 09:54 | -35.31442 | 149.19240 | 1880 ft | 23 kts | 180° |
| 2026-05-06 09:54 | -35.31597 | 149.19241 | 1880 ft | 21 kts | 180° |
| 2026-05-06 09:54 | -35.31740 | 149.19240 | 1880 ft | 20 kts | 180° |
| 2026-05-06 09:54 | -35.31870 | 149.19240 | 1880 ft | 18 kts | 180° |
| 2026-05-06 09:55 | -35.31957 | 149.19256 | 1876 ft | 9 kts | 154° |
| 2026-05-06 09:55 | -35.31990 | 149.19289 | 1877 ft | 3 kts | 130° |
| 2026-05-06 09:55 | -35.31993 | 149.19294 | 1878 ft | 0 kts | 127° |
| 2026-05-06 09:58 | -35.31998 | 149.19305 | 1880 ft | 4 kts | 120° |
| 2026-05-06 09:58 | -35.32011 | 149.19356 | 1880 ft | 10 kts | 96° |
| 2026-05-06 09:58 | -35.32006 | 149.19439 | 1877 ft | 5 kts | 49° |
| 2026-05-06 09:58 | -35.31968 | 149.19445 | 1880 ft | 11 kts | 1° |
| 2026-05-06 09:59 | -35.31685 | 149.19446 | 1878 ft | 76 kts | 360° |
| 2026-05-06 09:59 | -35.30949 | 149.19444 | 1878 ft | 134 kts | 0° |
| 2026-05-06 09:59 | -35.29854 | 149.19449 | 1887 ft | 177 kts | 1° |
| 2026-05-06 09:59 | -35.28601 | 149.19462 | 2430 ft | 179 kts | 0° |
| 2026-05-06 10:00 | -35.27373 | 149.19567 | 3210 ft | 177 kts | 2° |
| 2026-05-06 10:00 | -35.26141 | 149.19722 | 3819 ft | 181 kts | 1° |
| 2026-05-06 10:00 | -35.24364 | 149.19947 | 4087 ft | 208 kts | 1° |
| 2026-05-06 10:00 | -35.23359 | 149.20071 | 4185 ft | 222 kts | 1° |
| 2026-05-06 10:01 | -35.21735 | 149.20271 | 4332 ft | 247 kts | 2° |
| 2026-05-06 10:01 | -35.19949 | 149.20490 | 4751 ft | 265 kts | 2° |
| 2026-05-06 10:01 | -35.18116 | 149.20714 | 5411 ft | 271 kts | 2° |
| 2026-05-06 10:01 | -35.16231 | 149.20942 | 6175 ft | 274 kts | 2° |
| 2026-05-06 10:02 | -35.14329 | 149.21173 | 6912 ft | 276 kts | 2° |
| 2026-05-06 10:02 | -35.12421 | 149.21366 | 7604 ft | 277 kts | 355° |
| 2026-05-06 10:02 | -35.10533 | 149.20915 | 8282 ft | 275 kts | 333° |
| 2026-05-06 10:02 | -35.08813 | 149.19895 | 8999 ft | 276 kts | 330° |
| 2026-05-06 10:03 | -35.07086 | 149.18843 | 9704 ft | 279 kts | 330° |
| 2026-05-06 10:03 | -35.05338 | 149.17779 | 9962 ft | 281 kts | 330° |
| 2026-05-06 10:03 | -35.03586 | 149.16717 | 10015 ft | 281 kts | 330° |
| 2026-05-06 10:03 | -35.01787 | 149.15627 | 10032 ft | 290 kts | 330° |
| 2026-05-06 10:04 | -34.99974 | 149.14533 | 10040 ft | 295 kts | 330° |
| 2026-05-06 10:04 | -34.98166 | 149.13443 | 10045 ft | 293 kts | 330° |
| 2026-05-06 10:04 | -34.96343 | 149.12345 | 10035 ft | 286 kts | 330° |
| 2026-05-06 10:04 | -34.94565 | 149.11278 | 10191 ft | 287 kts | 330° |
| 2026-05-06 10:05 | -34.92725 | 149.10166 | 10430 ft | 306 kts | 330° |
| 2026-05-06 10:05 | -34.90753 | 149.08969 | 10584 ft | 326 kts | 330° |
| 2026-05-06 10:05 | -34.88690 | 149.07719 | 11027 ft | 334 kts | 330° |
| 2026-05-06 10:05 | -34.86595 | 149.06457 | 11660 ft | 337 kts | 330° |
| 2026-05-06 10:06 | -34.84413 | 149.05360 | 12295 ft | 343 kts | 341° |
| 2026-05-06 10:06 | -34.82045 | 149.04855 | 12953 ft | 350 kts | 353° |
| 2026-05-06 10:06 | -34.79594 | 149.05014 | 13580 ft | 358 kts | 6° |
| 2026-05-06 10:06 | -34.77172 | 149.05615 | 14181 ft | 361 kts | 8° |
| 2026-05-06 10:07 | -34.74704 | 149.06237 | 14745 ft | 364 kts | 7° |
| 2026-05-06 10:07 | -34.72220 | 149.06860 | 15291 ft | 366 kts | 7° |
| 2026-05-06 10:07 | -34.69713 | 149.07487 | 15838 ft | 369 kts | 7° |
| 2026-05-06 10:07 | -34.67185 | 149.08114 | 16382 ft | 372 kts | 7° |
| 2026-05-06 10:08 | -34.64642 | 149.08748 | 16922 ft | 375 kts | 7° |
| 2026-05-06 10:08 | -34.62073 | 149.09389 | 17459 ft | 378 kts | 7° |
| 2026-05-06 10:08 | -34.59489 | 149.10032 | 17981 ft | 381 kts | 7° |
| 2026-05-06 10:08 | -34.56884 | 149.10682 | 18493 ft | 384 kts | 7° |
| 2026-05-06 10:09 | -34.54258 | 149.11334 | 18946 ft | 386 kts | 7° |
| 2026-05-06 10:09 | -34.51618 | 149.11991 | 19401 ft | 388 kts | 7° |
| 2026-05-06 10:09 | -34.48968 | 149.12650 | 19863 ft | 390 kts | 7° |
| 2026-05-06 10:09 | -34.46303 | 149.13308 | 20314 ft | 392 kts | 7° |
| 2026-05-06 10:10 | -34.43625 | 149.13965 | 20763 ft | 394 kts | 7° |
| 2026-05-06 10:10 | -34.40933 | 149.14627 | 21225 ft | 396 kts | 7° |
| 2026-05-06 10:10 | -34.38233 | 149.15293 | 21679 ft | 397 kts | 7° |
| 2026-05-06 10:10 | -34.35517 | 149.15967 | 22127 ft | 400 kts | 7° |
| 2026-05-06 10:11 | -34.32784 | 149.16645 | 22558 ft | 402 kts | 7° |
| 2026-05-06 10:11 | -34.30040 | 149.17322 | 22985 ft | 404 kts | 7° |
| 2026-05-06 10:11 | -34.27281 | 149.18002 | 23404 ft | 406 kts | 7° |
| 2026-05-06 10:11 | -34.24510 | 149.18684 | 23809 ft | 408 kts | 7° |
| 2026-05-06 10:12 | -34.21720 | 149.19368 | 24146 ft | 410 kts | 7° |
| 2026-05-06 10:12 | -34.18920 | 149.20057 | 24482 ft | 412 kts | 7° |
| 2026-05-06 10:12 | -34.16101 | 149.20756 | 24823 ft | 414 kts | 7° |
| 2026-05-06 10:12 | -34.13268 | 149.21457 | 25136 ft | 417 kts | 7° |
| 2026-05-06 10:13 | -34.10414 | 149.22160 | 25456 ft | 419 kts | 7° |
| 2026-05-06 10:13 | -34.07584 | 149.22852 | 25772 ft | 421 kts | 7° |
| 2026-05-06 10:13 | -34.04703 | 149.23556 | 26075 ft | 423 kts | 7° |
| 2026-05-06 10:13 | -34.01811 | 149.24262 | 26379 ft | 426 kts | 7° |
| 2026-05-06 10:14 | -33.98899 | 149.24976 | 26691 ft | 428 kts | 7° |
| 2026-05-06 10:14 | -33.95977 | 149.25693 | 26994 ft | 430 kts | 7° |
| 2026-05-06 10:14 | -33.93038 | 149.26412 | 27283 ft | 432 kts | 7° |
| 2026-05-06 10:14 | -33.90081 | 149.27133 | 27568 ft | 434 kts | 7° |
| 2026-05-06 10:15 | -33.87112 | 149.27857 | 27866 ft | 436 kts | 7° |
| 2026-05-06 10:15 | -33.84127 | 149.28587 | 28149 ft | 438 kts | 7° |
| 2026-05-06 10:15 | -33.81132 | 149.29318 | 28431 ft | 440 kts | 7° |
| 2026-05-06 10:15 | -33.78123 | 149.30053 | 28711 ft | 442 kts | 6° |
| 2026-05-06 10:16 | -33.75105 | 149.30792 | 28988 ft | 444 kts | 6° |
| 2026-05-06 10:16 | -33.73492 | 149.31186 | 29122 ft | 445 kts | 6° |
| 2026-05-06 10:16 | -33.70400 | 149.31938 | 29382 ft | 447 kts | 6° |
| 2026-05-06 10:16 | -33.67346 | 149.32678 | 29643 ft | 449 kts | 6° |
| 2026-05-06 10:17 | -33.64285 | 149.33419 | 29904 ft | 450 kts | 6° |
| 2026-05-06 10:17 | -33.61246 | 149.34156 | 30166 ft | 452 kts | 6° |
| 2026-05-06 10:17 | -33.58158 | 149.34907 | 30400 ft | 453 kts | 6° |
| 2026-05-06 10:17 | -33.55076 | 149.35655 | 30723 ft | 452 kts | 6° |
| 2026-05-06 10:18 | -33.51996 | 149.36403 | 31068 ft | 450 kts | 6° |
| 2026-05-06 10:18 | -33.48927 | 149.37148 | 31400 ft | 449 kts | 5° |
| 2026-05-06 10:18 | -33.45871 | 149.37890 | 31735 ft | 447 kts | 5° |
| 2026-05-06 10:18 | -33.42826 | 149.38629 | 32075 ft | 446 kts | 5° |
| 2026-05-06 10:19 | -33.39792 | 149.39362 | 32419 ft | 445 kts | 5° |
| 2026-05-06 10:19 | -33.36763 | 149.40089 | 32761 ft | 443 kts | 5° |
| 2026-05-06 10:19 | -33.33745 | 149.40815 | 33091 ft | 442 kts | 4° |
| 2026-05-06 10:19 | -33.30737 | 149.41540 | 33425 ft | 440 kts | 4° |
| 2026-05-06 10:20 | -33.27737 | 149.42262 | 33763 ft | 439 kts | 4° |
| 2026-05-06 10:20 | -33.24746 | 149.42979 | 34096 ft | 438 kts | 4° |
| 2026-05-06 10:20 | -33.21763 | 149.43694 | 34383 ft | 437 kts | 4° |
| 2026-05-06 10:20 | -33.18827 | 149.44400 | 34642 ft | 436 kts | 4° |
| 2026-05-06 10:21 | -33.15861 | 149.45113 | 34899 ft | 435 kts | 4° |
| 2026-05-06 10:21 | -33.12893 | 149.45829 | 35100 ft | 435 kts | 4° |
| 2026-05-06 10:21 | -33.06993 | 149.47250 | 35155 ft | 431 kts | 3° |
| 2026-05-06 10:22 | -33.01130 | 149.48652 | 35154 ft | 429 kts | 3° |
| 2026-05-06 10:22 | -32.95273 | 149.50045 | 35152 ft | 429 kts | 3° |
| 2026-05-06 10:23 | -32.89420 | 149.51438 | 35149 ft | 429 kts | 3° |
| 2026-05-06 10:23 | -32.83565 | 149.52843 | 35140 ft | 429 kts | 3° |
| 2026-05-06 10:24 | -32.77715 | 149.54241 | 35138 ft | 428 kts | 3° |
| 2026-05-06 10:24 | -32.71868 | 149.55628 | 35129 ft | 428 kts | 3° |
| 2026-05-06 10:25 | -32.66063 | 149.57002 | 35129 ft | 428 kts | 3° |
| 2026-05-06 10:25 | -32.60230 | 149.58386 | 35129 ft | 428 kts | 3° |
| 2026-05-06 10:26 | -32.54540 | 149.60823 | 35124 ft | 447 kts | 21° |
| 2026-05-06 10:26 | -32.49356 | 149.65053 | 35124 ft | 454 kts | 27° |
| 2026-05-06 10:27 | -32.44214 | 149.69394 | 35118 ft | 454 kts | 27° |
| 2026-05-06 10:27 | -32.39064 | 149.73710 | 35121 ft | 454 kts | 27° |
| 2026-05-06 10:28 | -32.33907 | 149.78026 | 35148 ft | 456 kts | 26° |
| 2026-05-06 10:28 | -32.28738 | 149.82368 | 35125 ft | 456 kts | 27° |
| 2026-05-06 10:29 | -32.23566 | 149.86709 | 35120 ft | 456 kts | 27° |
| 2026-05-06 10:29 | -32.18414 | 149.91019 | 35116 ft | 456 kts | 27° |
| 2026-05-06 10:30 | -32.13227 | 149.95338 | 35119 ft | 456 kts | 26° |
| 2026-05-06 10:30 | -32.08039 | 149.99658 | 35112 ft | 457 kts | 27° |
| 2026-05-06 10:31 | -32.02852 | 150.03984 | 35115 ft | 457 kts | 27° |
| 2026-05-06 10:31 | -31.97664 | 150.08300 | 35119 ft | 457 kts | 27° |
| 2026-05-06 10:32 | -31.92472 | 150.12612 | 35117 ft | 456 kts | 27° |
| 2026-05-06 10:32 | -31.87280 | 150.16917 | 35119 ft | 457 kts | 27° |
| 2026-05-06 10:33 | -31.82086 | 150.21214 | 35118 ft | 456 kts | 27° |
| 2026-05-06 10:33 | -31.76893 | 150.25507 | 35115 ft | 456 kts | 27° |
| 2026-05-06 10:34 | -31.71738 | 150.29761 | 35119 ft | 456 kts | 27° |
| 2026-05-06 10:34 | -31.66548 | 150.34037 | 35116 ft | 455 kts | 27° |
| 2026-05-06 10:35 | -31.61375 | 150.38346 | 35112 ft | 459 kts | 31° |
| 2026-05-06 10:35 | -31.56558 | 150.43343 | 35105 ft | 463 kts | 34° |
| 2026-05-06 10:36 | -31.51767 | 150.48379 | 35100 ft | 463 kts | 34° |
| 2026-05-06 10:36 | -31.46967 | 150.53413 | 35099 ft | 463 kts | 34° |
| 2026-05-06 10:37 | -31.42170 | 150.58442 | 35097 ft | 463 kts | 34° |
| 2026-05-06 10:37 | -31.37404 | 150.63429 | 35096 ft | 463 kts | 34° |
| 2026-05-06 10:38 | -31.32564 | 150.68478 | 35100 ft | 463 kts | 34° |
| 2026-05-06 10:38 | -31.27756 | 150.73482 | 35100 ft | 463 kts | 34° |
| 2026-05-06 10:39 | -31.22978 | 150.78462 | 35098 ft | 463 kts | 34° |
| 2026-05-06 10:39 | -31.18167 | 150.83464 | 35123 ft | 463 kts | 34° |
| 2026-05-06 10:40 | -31.13352 | 150.88464 | 35123 ft | 463 kts | 33° |
| 2026-05-06 10:40 | -31.08535 | 150.93458 | 35123 ft | 463 kts | 33° |
| 2026-05-06 10:41 | -31.03712 | 150.98449 | 35117 ft | 463 kts | 33° |
| 2026-05-06 10:41 | -30.98889 | 151.03438 | 35115 ft | 463 kts | 33° |
| 2026-05-06 10:42 | -30.94064 | 151.08424 | 35114 ft | 464 kts | 33° |
| 2026-05-06 10:42 | -30.89258 | 151.13373 | 35109 ft | 464 kts | 33° |
| 2026-05-06 10:43 | -30.84423 | 151.18341 | 35112 ft | 464 kts | 33° |
| 2026-05-06 10:44 | -30.77171 | 151.25796 | 35121 ft | 464 kts | 33° |
| 2026-05-06 10:44 | -30.72332 | 151.30768 | 35121 ft | 464 kts | 33° |
| 2026-05-06 10:45 | -30.67484 | 151.35727 | 35114 ft | 464 kts | 33° |
| 2026-05-06 10:45 | -30.62635 | 151.40687 | 35121 ft | 464 kts | 33° |
| 2026-05-06 10:46 | -30.57787 | 151.45645 | 35121 ft | 464 kts | 33° |
| 2026-05-06 10:46 | -30.52932 | 151.50598 | 35117 ft | 465 kts | 32° |
| 2026-05-06 10:47 | -30.48073 | 151.55544 | 35121 ft | 465 kts | 32° |
| 2026-05-06 10:47 | -30.43236 | 151.60463 | 35128 ft | 466 kts | 32° |
| 2026-05-06 10:48 | -30.38395 | 151.65467 | 35116 ft | 468 kts | 35° |
| 2026-05-06 10:48 | -30.33791 | 151.70867 | 35122 ft | 473 kts | 38° |
| 2026-05-06 10:49 | -30.29305 | 151.76455 | 35117 ft | 474 kts | 38° |
| 2026-05-06 10:49 | -30.24772 | 151.81994 | 35122 ft | 474 kts | 37° |
| 2026-05-06 10:50 | -30.20175 | 151.87450 | 35120 ft | 474 kts | 37° |
| 2026-05-06 10:50 | -30.15557 | 151.92901 | 35119 ft | 475 kts | 37° |
| 2026-05-06 10:51 | -30.10940 | 151.98375 | 35124 ft | 476 kts | 37° |
| 2026-05-06 10:51 | -30.06327 | 152.03868 | 35121 ft | 477 kts | 37° |
| 2026-05-06 10:52 | -30.01734 | 152.09331 | 35123 ft | 478 kts | 37° |
| 2026-05-06 10:52 | -29.97090 | 152.14826 | 35122 ft | 478 kts | 37° |
| 2026-05-06 10:53 | -29.92434 | 152.20321 | 35121 ft | 479 kts | 36° |
| 2026-05-06 10:53 | -29.87780 | 152.25817 | 35118 ft | 480 kts | 36° |
| 2026-05-06 10:54 | -29.83114 | 152.31319 | 35111 ft | 480 kts | 36° |
| 2026-05-06 10:54 | -29.79228 | 152.35891 | 35120 ft | 481 kts | 36° |
| 2026-05-06 10:55 | -29.73779 | 152.42293 | 35110 ft | 482 kts | 36° |
| 2026-05-06 10:55 | -29.69849 | 152.46903 | 35109 ft | 482 kts | 36° |
| 2026-05-06 10:56 | -29.65148 | 152.52407 | 35106 ft | 483 kts | 36° |
| 2026-05-06 10:56 | -29.60432 | 152.57927 | 35100 ft | 484 kts | 36° |
| 2026-05-06 10:56 | -29.58069 | 152.60690 | 34987 ft | 486 kts | 36° |
| 2026-05-06 10:57 | -29.55731 | 152.63424 | 34740 ft | 486 kts | 36° |
| 2026-05-06 10:57 | -29.53363 | 152.66194 | 34506 ft | 486 kts | 36° |
| 2026-05-06 10:57 | -29.50996 | 152.68960 | 34272 ft | 486 kts | 36° |
| 2026-05-06 10:57 | -29.48625 | 152.71724 | 34029 ft | 486 kts | 36° |
| 2026-05-06 10:58 | -29.46253 | 152.74481 | 33646 ft | 486 kts | 36° |
| 2026-05-06 10:58 | -29.43866 | 152.77253 | 32890 ft | 488 kts | 37° |
| 2026-05-06 10:58 | -29.41489 | 152.80020 | 32332 ft | 485 kts | 37° |
| 2026-05-06 10:58 | -29.39124 | 152.82774 | 31735 ft | 484 kts | 38° |
| 2026-05-06 10:59 | -29.36766 | 152.85517 | 31144 ft | 482 kts | 38° |
| 2026-05-06 10:59 | -29.34419 | 152.88249 | 30559 ft | 480 kts | 38° |
| 2026-05-06 10:59 | -29.32081 | 152.90971 | 30025 ft | 477 kts | 39° |
| 2026-05-06 10:59 | -29.29767 | 152.93665 | 29366 ft | 474 kts | 39° |
| 2026-05-06 11:00 | -29.27494 | 152.96302 | 28922 ft | 467 kts | 39° |
| 2026-05-06 11:00 | -29.25214 | 152.98940 | 28265 ft | 465 kts | 39° |
| 2026-05-06 11:00 | -29.22949 | 153.01559 | 27732 ft | 460 kts | 39° |
| 2026-05-06 11:00 | -29.20703 | 153.04148 | 27257 ft | 455 kts | 39° |
| 2026-05-06 11:01 | -29.18470 | 153.06721 | 26660 ft | 453 kts | 39° |
| 2026-05-06 11:01 | -29.16264 | 153.09266 | 26118 ft | 450 kts | 39° |
| 2026-05-06 11:01 | -29.14076 | 153.11796 | 25678 ft | 445 kts | 39° |
| 2026-05-06 11:01 | -29.11901 | 153.14308 | 25181 ft | 441 kts | 39° |
| 2026-05-06 11:02 | -29.09745 | 153.16795 | 24631 ft | 439 kts | 39° |
| 2026-05-06 11:02 | -29.07607 | 153.19256 | 24146 ft | 436 kts | 39° |
| 2026-05-06 11:02 | -29.05483 | 153.21699 | 23707 ft | 431 kts | 39° |
| 2026-05-06 11:02 | -29.03373 | 153.24123 | 23137 ft | 427 kts | 39° |
| 2026-05-06 11:03 | -29.01287 | 153.26522 | 22579 ft | 424 kts | 40° |
| 2026-05-06 11:03 | -28.99224 | 153.28898 | 22104 ft | 419 kts | 40° |
| 2026-05-06 11:03 | -28.97208 | 153.31218 | 21615 ft | 415 kts | 40° |
| 2026-05-06 11:03 | -28.95183 | 153.33543 | 21129 ft | 410 kts | 40° |
| 2026-05-06 11:04 | -28.93176 | 153.35840 | 20641 ft | 407 kts | 40° |
| 2026-05-06 11:04 | -28.91184 | 153.38121 | 20153 ft | 404 kts | 40° |
| 2026-05-06 11:04 | -28.89208 | 153.40381 | 19669 ft | 401 kts | 40° |
| 2026-05-06 11:04 | -28.87246 | 153.42629 | 19183 ft | 399 kts | 41° |
| 2026-05-06 11:05 | -28.85283 | 153.44853 | 18707 ft | 395 kts | 38° |
| 2026-05-06 11:05 | -28.83100 | 153.46680 | 18241 ft | 385 kts | 25° |
| 2026-05-06 11:05 | -28.80697 | 153.47921 | 17798 ft | 375 kts | 17° |
| 2026-05-06 11:05 | -28.78265 | 153.48990 | 17305 ft | 373 kts | 17° |
| 2026-05-06 11:06 | -28.75859 | 153.50059 | 16879 ft | 369 kts | 17° |
| 2026-05-06 11:06 | -28.73485 | 153.51119 | 16448 ft | 365 kts | 17° |
| 2026-05-06 11:06 | -28.71129 | 153.52172 | 16016 ft | 361 kts | 17° |
| 2026-05-06 11:06 | -28.68788 | 153.53216 | 15511 ft | 361 kts | 18° |
| 2026-05-06 11:07 | -28.66458 | 153.54252 | 15075 ft | 359 kts | 17° |
| 2026-05-06 11:07 | -28.64142 | 153.55278 | 14642 ft | 356 kts | 18° |
| 2026-05-06 11:07 | -28.61843 | 153.56295 | 14219 ft | 353 kts | 18° |
| 2026-05-06 11:07 | -28.59566 | 153.57304 | 13808 ft | 350 kts | 18° |
| 2026-05-06 11:08 | -28.57314 | 153.58300 | 13338 ft | 347 kts | 18° |
| 2026-05-06 11:08 | -28.55093 | 153.59284 | 12912 ft | 344 kts | 18° |
| 2026-05-06 11:08 | -28.52872 | 153.60269 | 12495 ft | 341 kts | 18° |
| 2026-05-06 11:08 | -28.50656 | 153.61200 | 12075 ft | 337 kts | 16° |
| 2026-05-06 11:09 | -28.48442 | 153.62054 | 11655 ft | 335 kts | 15° |
| 2026-05-06 11:09 | -28.46234 | 153.62868 | 11230 ft | 333 kts | 15° |
| 2026-05-06 11:09 | -28.44034 | 153.63671 | 10800 ft | 331 kts | 15° |
| 2026-05-06 11:09 | -28.41847 | 153.64472 | 10391 ft | 330 kts | 15° |
| 2026-05-06 11:10 | -28.39688 | 153.65268 | 10187 ft | 321 kts | 16° |
| 2026-05-06 11:10 | -28.37603 | 153.66038 | 10064 ft | 309 kts | 15° |
| 2026-05-06 11:10 | -28.35588 | 153.66773 | 9931 ft | 299 kts | 15° |
| 2026-05-06 11:10 | -28.33626 | 153.67486 | 9642 ft | 293 kts | 15° |
| 2026-05-06 11:11 | -28.31698 | 153.68184 | 9117 ft | 290 kts | 15° |
| 2026-05-06 11:11 | -28.29765 | 153.68792 | 8564 ft | 286 kts | 7° |
| 2026-05-06 11:11 | -28.27801 | 153.68888 | 8030 ft | 281 kts | 352° |
| 2026-05-06 11:11 | -28.25910 | 153.68434 | 7497 ft | 276 kts | 339° |
| 2026-05-06 11:12 | -28.24105 | 153.67698 | 6955 ft | 275 kts | 338° |
| 2026-05-06 11:12 | -28.22307 | 153.66968 | 6419 ft | 273 kts | 339° |
| 2026-05-06 11:12 | -28.20519 | 153.66248 | 6068 ft | 272 kts | 339° |
| 2026-05-06 11:12 | -28.18755 | 153.65539 | 5892 ft | 272 kts | 339° |
| 2026-05-06 11:13 | -28.17002 | 153.64838 | 5700 ft | 258 kts | 339° |
| 2026-05-06 11:13 | -28.15368 | 153.64189 | 5588 ft | 239 kts | 339° |
| 2026-05-06 11:13 | -28.13855 | 153.63590 | 5403 ft | 224 kts | 339° |
| 2026-05-06 11:13 | -28.12408 | 153.63014 | 5154 ft | 216 kts | 339° |
| 2026-05-06 11:14 | -28.10997 | 153.62451 | 4665 ft | 215 kts | 340° |
| 2026-05-06 11:14 | -28.09584 | 153.61884 | 4156 ft | 216 kts | 340° |
| 2026-05-06 11:14 | -28.08188 | 153.61323 | 3676 ft | 216 kts | 341° |
| 2026-05-06 11:14 | -28.06805 | 153.60770 | 3393 ft | 207 kts | 341° |
| 2026-05-06 11:15 | -28.05453 | 153.60229 | 2971 ft | 207 kts | 341° |
| 2026-05-06 11:15 | -28.04100 | 153.59674 | 2570 ft | 206 kts | 337° |
| 2026-05-06 11:15 | -28.02955 | 153.58746 | 2533 ft | 201 kts | 313° |
| 2026-05-06 11:15 | -28.02225 | 153.57428 | 2516 ft | 196 kts | 289° |
| 2026-05-06 11:16 | -28.02000 | 153.55923 | 2512 ft | 194 kts | 267° |
| 2026-05-06 11:16 | -28.02041 | 153.54395 | 2514 ft | 194 kts | 266° |
| 2026-05-06 11:16 | -28.02075 | 153.52871 | 2508 ft | 193 kts | 267° |
| 2026-05-06 11:16 | -28.02106 | 153.51366 | 2514 ft | 194 kts | 267° |
| 2026-05-06 11:17 | -28.02137 | 153.49843 | 2512 ft | 193 kts | 267° |
| 2026-05-06 11:17 | -28.02314 | 153.48352 | 2505 ft | 187 kts | 245° |
| 2026-05-06 11:17 | -28.03082 | 153.47304 | 2503 ft | 167 kts | 211° |
| 2026-05-06 11:17 | -28.04144 | 153.46908 | 2494 ft | 158 kts | 182° |
| 2026-05-06 11:18 | -28.05240 | 153.46886 | 2263 ft | 155 kts | 179° |
| 2026-05-06 11:18 | -28.06298 | 153.46872 | 2055 ft | 153 kts | 178° |
| 2026-05-06 11:18 | -28.07357 | 153.46859 | 1838 ft | 152 kts | 179° |
| 2026-05-06 11:18 | -28.08412 | 153.46847 | 1627 ft | 151 kts | 178° |
| 2026-05-06 11:19 | -28.09459 | 153.46885 | 1435 ft | 150 kts | 174° |
| 2026-05-06 11:19 | -28.10491 | 153.47091 | 1215 ft | 151 kts | 163° |
| 2026-05-06 11:19 | -28.11474 | 153.47520 | 972 ft | 151 kts | 155° |
| 2026-05-06 11:19 | -28.12413 | 153.48051 | 743 ft | 152 kts | 152° |
| 2026-05-06 11:20 | -28.13331 | 153.48615 | 574 ft | 150 kts | 153° |
| 2026-05-06 11:20 | -28.14251 | 153.49180 | 415 ft | 150 kts | 152° |
| 2026-05-06 11:20 | -28.15158 | 153.49759 | 193 ft | 149 kts | 152° |
| 2026-05-06 11:20 | -28.16047 | 153.50323 | 31 ft | 143 kts | 152° |
| 2026-05-06 11:21 | -28.16815 | 153.50809 | 28 ft | 94 kts | 150° |
| 2026-05-06 11:21 | -28.17155 | 153.51027 | 27 ft | 37 kts | 150° |
| 2026-05-06 11:21 | -28.17367 | 153.51163 | 26 ft | 28 kts | 150° |
| 2026-05-06 11:21 | -28.17458 | 153.51272 | 28 ft | 16 kts | 87° |
| 2026-05-06 11:22 | -28.17413 | 153.51374 | 31 ft | 13 kts | 45° |
| 2026-05-06 11:22 | -28.17340 | 153.51363 | 28 ft | 11 kts | 330° |
| 2026-05-06 11:22 | -28.17279 | 153.51323 | 26 ft | 10 kts | 330° |
| 2026-05-06 11:22 | -28.17225 | 153.51288 | 27 ft | 8 kts | 330° |
| 2026-05-06 11:23 | -28.17179 | 153.51259 | 30 ft | 7 kts | 330° |
| 2026-05-06 11:23 | -28.17131 | 153.51228 | 30 ft | 9 kts | 330° |
| 2026-05-06 11:23 | -28.17069 | 153.51188 | 30 ft | 11 kts | 331° |
| 2026-05-06 11:23 | -28.17004 | 153.51147 | 27 ft | 10 kts | 331° |
| 2026-05-06 11:24 | -28.16945 | 153.51110 | 30 ft | 9 kts | 331° |
| 2026-05-06 11:24 | -28.16893 | 153.51091 | 29 ft | 7 kts | 6° |
| 2026-05-06 11:24 | -28.16860 | 153.51121 | 26 ft | 5 kts | 40° |
| 2026-05-06 11:24 | -28.16814 | 153.51130 | 28 ft | 9 kts | 337° |
| 2026-05-06 11:25 | -28.16741 | 153.51084 | 26 ft | 12 kts | 332° |
| 2026-05-06 11:25 | -28.16674 | 153.51048 | 29 ft | 7 kts | 355° |
| 2026-05-06 11:25 | -28.16645 | 153.51082 | 26 ft | 5 kts | 60° |
| 2026-05-06 11:25 | -28.16631 | 153.51111 | 27 ft | 3 kts | 59° |
| 2026-05-06 11:26 | -28.16628 | 153.51117 | 28 ft | 0 kts | 60° |